Time;durP1;ratioP1;P1;durP2;ratioP2;P2;SDS_P1;SDS_P2;PMS_P1;PMS_P2;Temp;Humidity;BMP_temperature;BMP_pressure;BME280_temperature;BME280_humidity;BME280_pressure;Samples;Min_cycle;Max_cycle;Signal;HPM_P1;HPM_P2
2022/04/11 00:02:08;;;;;;;10.27;5.90;;;2.50;96.60;;;;;;5054725;28;20182;-44
2022/04/11 00:04:34;;;;;;;7.40;6.50;;;2.90;99.90;;;;;;5056658;28;20182;-44
2022/04/11 00:07:00;;;;;;;8.90;8.10;;;3.40;99.90;;;;;;5056273;28;20178;-44
2022/04/11 00:09:25;;;;;;;8.50;7.43;;;4.00;99.90;;;;;;5056083;28;20182;-44
2022/04/11 00:11:51;;;;;;;7.53;6.77;;;4.40;99.90;;;;;;5056044;28;20532;-44
2022/04/11 00:14:17;;;;;;;6.33;5.73;;;4.80;99.90;;;;;;5056192;28;20276;-46
2022/04/11 00:16:43;;;;;;;6.73;6.13;;;5.20;99.20;;;;;;5055836;28;20482;-45
2022/04/11 00:19:08;;;;;;;7.63;6.83;;;5.10;96.40;;;;;;5056343;28;20178;-45
2022/04/11 00:21:35;;;;;;;7.43;6.73;;;4.90;94.00;;;;;;5055681;28;20181;-45
2022/04/11 00:24:00;;;;;;;7.87;5.70;;;4.60;93.00;;;;;;5056425;28;20178;-44
2022/04/11 00:26:26;;;;;;;7.67;6.97;;;4.30;92.90;;;;;;5055177;28;20480;-45
2022/04/11 00:28:53;;;;;;;8.60;6.67;;;4.00;93.10;;;;;;5057045;28;20202;-45
2022/04/11 00:31:19;;;;;;;10.33;6.43;;;3.80;93.40;;;;;;5055182;28;20210;-45
2022/04/11 00:33:44;;;;;;;6.43;5.83;;;3.60;93.80;;;;;;5053990;28;20419;-45
2022/04/11 00:36:11;;;;;;;6.60;5.70;;;3.40;94.10;;;;;;5052333;28;20438;-45
2022/04/11 00:38:37;;;;;;;7.23;6.63;;;3.30;94.40;;;;;;5053648;28;20834;-44
2022/04/11 00:41:02;;;;;;;8.17;5.93;;;3.10;94.60;;;;;;5054083;28;20249;-45
2022/04/11 00:43:33;;;;;;;7.57;6.77;;;3.00;94.90;;;;;;5054031;28;20265;-45
2022/04/11 00:45:59;;;;;;;8.27;6.60;;;2.90;95.00;;;;;;5053759;28;20495;-45
2022/04/11 00:48:25;;;;;;;7.20;6.50;;;2.80;95.30;;;;;;5054405;28;20417;-45
2022/04/11 00:50:54;;;;;;;8.70;6.60;;;2.80;95.40;;;;;;5054842;28;20423;-45
2022/04/11 00:53:19;;;;;;;7.60;6.83;;;2.70;95.60;;;;;;5054039;28;20458;-45
2022/04/11 00:55:45;;;;;;;8.50;7.53;;;2.60;95.90;;;;;;5054281;28;20511;-45
2022/04/11 00:58:11;;;;;;;6.97;6.23;;;2.50;96.00;;;;;;5055870;28;20174;-45
2022/04/11 01:00:38;;;;;;;10.50;7.30;;;2.50;96.10;;;;;;5055424;28;20877;-45
2022/04/11 01:03:03;;;;;;;9.20;7.20;;;2.40;96.20;;;;;;5054787;28;20170;-44
2022/04/11 01:05:29;;;;;;;8.90;7.10;;;2.40;96.30;;;;;;5054447;28;20428;-44
2022/04/11 01:07:59;;;;;;;7.80;7.00;;;2.30;96.40;;;;;;5054683;28;20170;-45
2022/04/11 01:10:25;;;;;;;7.17;6.53;;;2.30;96.40;;;;;;5053968;28;20178;-45
2022/04/11 01:12:50;;;;;;;10.40;7.00;;;2.30;96.40;;;;;;5054462;28;20479;-45
2022/04/11 01:15:16;;;;;;;8.17;6.30;;;2.20;96.50;;;;;;5055326;28;20477;-45
2022/04/11 01:17:42;;;;;;;7.80;7.10;;;2.20;96.50;;;;;;5055192;28;20561;-45
2022/04/11 01:20:12;;;;;;;7.60;6.90;;;2.20;96.60;;;;;;5054197;28;20634;-45
2022/04/11 01:22:39;;;;;;;8.13;7.17;;;2.20;96.70;;;;;;5053656;28;20351;-45
2022/04/11 01:25:05;;;;;;;8.00;7.13;;;2.10;96.70;;;;;;5053954;28;20429;-45
2022/04/11 01:27:31;;;;;;;8.60;6.60;;;2.10;96.60;;;;;;5054775;28;20440;-45
2022/04/11 01:29:58;;;;;;;8.10;7.30;;;2.10;96.70;;;;;;5055948;28;20425;-45
2022/04/11 01:32:24;;;;;;;7.67;6.90;;;2.10;96.80;;;;;;5052903;28;20471;-45
2022/04/11 01:34:49;;;;;;;10.30;8.40;;;2.00;96.90;;;;;;5054195;28;20416;-45
2022/04/11 01:37:15;;;;;;;9.10;6.37;;;2.00;96.90;;;;;;5054939;28;20183;-45
2022/04/11 01:39:41;;;;;;;9.17;7.90;;;2.00;96.90;;;;;;5055650;28;20178;-45
2022/04/11 01:42:06;;;;;;;8.60;6.80;;;2.00;97.00;;;;;;5054679;28;20224;-44
2022/04/11 01:44:32;;;;;;;8.20;7.27;;;2.00;97.10;;;;;;5054717;28;20190;-45
2022/04/11 01:46:58;;;;;;;8.43;6.63;;;1.90;97.10;;;;;;5054568;28;20421;-45
2022/04/11 01:49:23;;;;;;;7.37;6.60;;;2.00;97.10;;;;;;5054579;28;20492;-45
2022/04/11 01:51:49;;;;;;;10.93;7.33;;;1.90;97.10;;;;;;5057745;28;20209;-45
2022/04/11 01:54:15;;;;;;;7.17;6.23;;;1.90;97.20;;;;;;5060141;28;20309;-45
2022/04/11 01:56:40;;;;;;;6.97;6.37;;;1.90;97.20;;;;;;5059282;28;20166;-45
2022/04/11 01:59:06;;;;;;;8.27;6.73;;;1.90;97.30;;;;;;5059725;28;20248;-45
2022/04/11 02:01:31;;;;;;;8.20;7.40;;;1.90;97.30;;;;;;5057792;28;20323;-45
2022/04/11 02:03:57;;;;;;;8.60;6.70;;;1.90;97.30;;;;;;5058933;28;20186;-45
2022/04/11 02:06:22;;;;;;;7.87;6.60;;;1.90;97.30;;;;;;5058819;28;20174;-45
2022/04/11 02:08:48;;;;;;;7.80;7.10;;;1.90;97.40;;;;;;5059408;28;20174;-45
2022/04/11 02:11:14;;;;;;;9.57;8.60;;;1.90;97.40;;;;;;5058974;28;20640;-45
2022/04/11 02:13:39;;;;;;;9.50;7.97;;;2.00;97.60;;;;;;5059483;28;20185;-45
2022/04/11 02:16:05;;;;;;;8.30;6.90;;;2.00;97.60;;;;;;5058895;28;20185;-45
2022/04/11 02:18:30;;;;;;;7.63;6.93;;;2.00;97.60;;;;;;5058524;28;20179;-45
2022/04/11 02:20:56;;;;;;;10.33;8.07;;;2.10;97.70;;;;;;5058489;28;20177;-45
2022/04/11 02:23:22;;;;;;;7.43;6.40;;;2.10;97.50;;;;;;5058731;28;20251;-45
2022/04/11 02:25:47;;;;;;;8.17;6.97;;;2.10;97.50;;;;;;5058832;28;20230;-45
2022/04/11 02:28:13;;;;;;;10.60;6.97;;;2.10;97.30;;;;;;5057667;28;20182;-45
2022/04/11 02:30:39;;;;;;;9.73;7.10;;;2.10;97.20;;;;;;5059067;28;20182;-45
2022/04/11 02:33:05;;;;;;;9.83;7.33;;;2.20;97.30;;;;;;5056748;28;20214;-45
2022/04/11 02:35:31;;;;;;;9.47;6.90;;;2.20;97.30;;;;;;5057539;28;20887;-45
2022/04/11 02:37:57;;;;;;;7.80;7.10;;;2.20;97.30;;;;;;5058054;28;20419;-45
2022/04/11 02:40:22;;;;;;;7.90;7.07;;;2.20;97.40;;;;;;5058290;28;20427;-45
2022/04/11 02:42:48;;;;;;;8.63;7.10;;;2.20;97.40;;;;;;5057146;28;20557;-45
2022/04/11 02:45:15;;;;;;;8.57;7.37;;;2.30;97.40;;;;;;5057091;28;20178;-45
2022/04/11 02:47:41;;;;;;;10.07;7.40;;;2.30;97.30;;;;;;5056436;28;20257;-45
2022/04/11 02:50:08;;;;;;;8.13;7.27;;;2.30;97.30;;;;;;5056857;28;20470;-45
2022/04/11 02:52:34;;;;;;;8.80;8.00;;;2.30;97.20;;;;;;5054814;28;20475;-45
2022/04/11 02:55:00;;;;;;;8.53;7.60;;;2.40;97.20;;;;;;5053058;28;20421;-45
2022/04/11 02:57:26;;;;;;;10.90;8.80;;;2.40;97.10;;;;;;5054143;28;20449;-45
2022/04/11 02:59:52;;;;;;;11.20;8.40;;;2.40;96.90;;;;;;5054973;28;20579;-45
2022/04/11 03:02:18;;;;;;;8.57;7.60;;;2.40;96.80;;;;;;5054012;28;20424;-45
2022/04/11 03:04:44;;;;;;;9.53;7.53;;;2.50;96.80;;;;;;5055250;28;20421;-45
2022/04/11 03:07:10;;;;;;;9.07;7.87;;;2.50;96.60;;;;;;5055397;28;20823;-45
2022/04/11 03:09:36;;;;;;;9.37;7.30;;;2.50;96.50;;;;;;5055722;28;20167;-45
2022/04/11 03:12:01;;;;;;;8.03;7.23;;;2.50;96.40;;;;;;5055017;28;20866;-45
2022/04/11 03:14:27;;;;;;;7.93;7.13;;;2.60;96.50;;;;;;5054636;28;20244;-45
2022/04/11 03:16:53;;;;;;;7.53;6.87;;;2.60;96.50;;;;;;5055712;28;20190;-45
2022/04/11 03:19:19;;;;;;;10.47;7.57;;;2.60;96.50;;;;;;5054759;28;20695;-45
2022/04/11 03:21:45;;;;;;;8.63;7.70;;;2.50;96.60;;;;;;5053833;28;20180;-45
2022/04/11 03:24:11;;;;;;;8.97;8.07;;;2.50;96.70;;;;;;5056187;28;20455;-45
2022/04/11 03:26:37;;;;;;;82.27;47.27;;;2.50;96.80;;;;;;5055806;28;20230;-45
2022/04/11 03:29:02;;;;;;;224.83;104.00;;;2.50;96.90;;;;;;5055792;28;20511;-45
2022/04/11 03:31:28;;;;;;;109.43;48.27;;;2.50;97.00;;;;;;5055561;28;20215;-45
2022/04/11 03:33:54;;;;;;;41.13;21.80;;;2.40;97.10;;;;;;5056409;28;20421;-45
2022/04/11 03:36:21;;;;;;;16.23;12.60;;;2.40;97.30;;;;;;5055913;28;20468;-45
2022/04/11 03:38:47;;;;;;;10.70;9.37;;;2.40;97.30;;;;;;5056005;28;20412;-44
2022/04/11 03:41:12;;;;;;;11.53;7.93;;;2.40;97.70;;;;;;5056141;28;20420;-45
2022/04/11 03:43:38;;;;;;;10.97;8.57;;;2.40;97.40;;;;;;5056718;28;20254;-45
2022/04/11 03:46:03;;;;;;;9.30;8.40;;;2.40;97.40;;;;;;5055735;28;20174;-45
2022/04/11 03:48:29;;;;;;;10.50;8.30;;;2.40;97.30;;;;;;5056521;28;20163;-45
2022/04/11 03:50:55;;;;;;;10.87;8.00;;;2.40;97.40;;;;;;5055401;28;20166;-45
2022/04/11 03:53:20;;;;;;;11.07;8.70;;;2.30;97.30;;;;;;5055614;28;20339;-45
2022/04/11 03:55:46;;;;;;;9.00;8.10;;;2.30;97.30;;;;;;5055889;28;20194;-45
2022/04/11 03:58:11;;;;;;;9.83;8.83;;;2.30;97.70;;;;;;5055614;28;20166;-45
2022/04/11 04:00:37;;;;;;;10.17;8.30;;;2.30;97.30;;;;;;5054531;28;20174;-45
2022/04/11 04:03:10;;;;;;;9.20;8.30;;;2.30;97.20;;;;;;5053972;28;20189;-44
2022/04/11 04:05:46;;;;;;;8.60;7.37;;;2.30;97.20;;;;;;5053217;28;20170;-45
2022/04/11 04:08:13;;;;;;;11.60;8.30;;;2.30;97.20;;;;;;5052353;28;20850;-49
2022/04/11 04:10:40;;;;;;;8.70;7.90;;;2.30;97.30;;;;;;5051951;28;20431;-46
2022/04/11 04:13:06;;;;;;;11.90;9.10;;;2.30;97.20;;;;;;5052736;28;20921;-47
2022/04/11 04:15:32;;;;;;;9.37;8.13;;;2.30;97.30;;;;;;5050912;28;20420;-46
2022/04/11 04:17:58;;;;;;;8.73;7.90;;;2.30;97.30;;;;;;5050848;28;20432;-47
2022/04/11 04:20:26;;;;;;;8.93;8.03;;;2.30;97.30;;;;;;5050453;28;20174;-45
2022/04/11 04:22:52;;;;;;;11.93;8.87;;;2.30;97.30;;;;;;5050377;28;20318;-46
2022/04/11 04:25:18;;;;;;;10.73;9.53;;;2.30;97.20;;;;;;5051249;28;20718;-45
2022/04/11 04:27:44;;;;;;;12.70;9.90;;;2.30;97.20;;;;;;5051003;28;20660;-44
2022/04/11 04:30:10;;;;;;;11.53;10.27;;;2.30;97.20;;;;;;5051526;28;20476;-45
2022/04/11 04:32:35;;;;;;;11.27;10.13;;;2.30;97.20;;;;;;5053168;28;20209;-44
2022/04/11 04:35:01;;;;;;;11.10;10.00;;;2.30;97.20;;;;;;5052437;28;20420;-45
2022/04/11 04:37:27;;;;;;;11.80;10.10;;;2.30;97.20;;;;;;5050948;28;20181;-43
2022/04/11 04:39:53;;;;;;;12.70;11.40;;;2.30;97.10;;;;;;5051573;28;20433;-48
2022/04/11 04:42:22;;;;;;;12.27;10.17;;;2.30;97.00;;;;;;5049973;28;20556;-44
2022/04/11 04:44:48;;;;;;;11.17;10.07;;;2.30;97.00;;;;;;5050813;28;20494;-44
2022/04/11 04:47:15;;;;;;;12.80;11.50;;;2.20;96.90;;;;;;5049540;28;20433;-46
2022/04/11 04:49:41;;;;;;;12.30;11.03;;;2.20;96.90;;;;;;5049437;28;20466;-44
2022/04/11 04:52:07;;;;;;;13.70;12.30;;;2.20;96.90;;;;;;5049008;28;20534;-45
2022/04/11 04:54:33;;;;;;;12.00;10.80;;;2.20;96.90;;;;;;5050473;28;20421;-46
2022/04/11 04:56:59;;;;;;;13.60;12.30;;;2.10;97.20;;;;;;5047450;28;20446;-44
2022/04/11 04:59:25;;;;;;;13.40;11.40;;;2.10;97.00;;;;;;5046256;28;20184;-45
2022/04/11 05:01:50;;;;;;;13.40;12.20;;;2.10;97.10;;;;;;5047226;28;20724;-45
2022/04/11 05:04:16;;;;;;;12.07;10.80;;;2.00;97.20;;;;;;5046764;28;20188;-46
2022/04/11 05:06:42;;;;;;;10.73;9.70;;;2.00;97.30;;;;;;5046561;28;20404;-43
2022/04/11 05:09:07;;;;;;;11.37;10.23;;;2.00;97.30;;;;;;5045457;28;20288;-47
2022/04/11 05:11:33;;;;;;;12.27;11.17;;;2.00;97.30;;;;;;5043978;28;20214;-45
2022/04/11 05:13:58;;;;;;;10.80;9.67;;;2.00;97.40;;;;;;5027611;28;20592;-46
2022/04/11 05:16:24;;;;;;;12.50;11.17;;;2.00;97.30;;;;;;5045037;28;20364;-45
2022/04/11 05:18:50;;;;;;;11.30;10.13;;;2.00;97.40;;;;;;5044969;28;20584;-45
2022/04/11 05:21:15;;;;;;;12.07;10.23;;;2.10;97.30;;;;;;5046324;28;20251;-44
2022/04/11 05:23:42;;;;;;;11.17;10.07;;;2.10;97.30;;;;;;5048830;28;20208;-45
2022/04/11 05:26:08;;;;;;;11.67;10.47;;;2.10;97.30;;;;;;5047386;28;20764;-46
2022/04/11 05:28:34;;;;;;;11.47;10.30;;;2.10;97.20;;;;;;5045019;28;20551;-46
2022/04/11 05:31:00;;;;;;;12.63;11.27;;;2.10;97.20;;;;;;5043709;28;20708;-46
2022/04/11 05:33:26;;;;;;;11.63;10.63;;;2.10;97.20;;;;;;5043948;28;20271;-45
2022/04/11 05:35:52;;;;;;;10.97;9.87;;;2.10;97.20;;;;;;5044260;28;20178;-44
2022/04/11 05:38:19;;;;;;;13.93;11.30;;;2.20;97.30;;;;;;5043151;28;20602;-45
2022/04/11 05:40:45;;;;;;;12.37;10.27;;;2.20;97.30;;;;;;5044040;28;20452;-47
2022/04/11 05:43:13;;;;;;;14.40;11.80;;;2.30;97.30;;;;;;5041907;28;21057;-46
2022/04/11 05:45:41;;;;;;;12.30;11.10;;;2.30;97.20;;;;;;5040404;28;20511;-46
2022/04/11 05:48:07;;;;;;;12.63;11.33;;;2.40;97.10;;;;;;5037396;28;20648;-47
2022/04/11 05:50:33;;;;;;;12.23;10.97;;;2.50;97.20;;;;;;5036811;28;20505;-45
2022/04/11 05:53:00;;;;;;;16.37;10.50;;;2.60;97.30;;;;;;5041308;28;20846;-45
2022/04/11 05:55:26;;;;;;;11.77;10.47;;;2.70;97.30;;;;;;5037946;28;20635;-45
2022/04/11 05:57:53;;;;;;;13.40;9.77;;;2.80;97.20;;;;;;5039517;28;20421;-44
2022/04/11 06:00:19;;;;;;;12.30;10.30;;;2.90;97.20;;;;;;5039096;28;20425;-45
2022/04/11 06:02:45;;;;;;;11.13;10.13;;;3.10;97.00;;;;;;5042415;28;20715;-50
2022/04/11 06:05:11;;;;;;;17.17;9.13;;;3.30;96.60;;;;;;5039099;28;20489;-45
2022/04/11 06:07:37;;;;;;;10.10;9.10;;;3.50;96.10;;;;;;5039713;28;20842;-43
2022/04/11 06:10:04;;;;;;;9.63;7.80;;;3.70;95.50;;;;;;5041062;28;20453;-44
2022/04/11 06:12:30;;;;;;;12.67;8.77;;;3.90;94.40;;;;;;5039326;28;20490;-45
2022/04/11 06:14:56;;;;;;;9.17;7.73;;;4.20;93.50;;;;;;5038069;28;20573;-45
2022/04/11 06:17:23;;;;;;;9.30;8.00;;;4.50;92.70;;;;;;5041652;28;20194;-44
2022/04/11 06:19:53;;;;;;;8.70;7.63;;;4.60;92.00;;;;;;5039831;28;20307;-48
2022/04/11 06:22:19;;;;;;;8.20;7.33;;;4.90;91.30;;;;;;5037216;28;20979;-45
2022/04/11 06:24:46;;;;;;;9.10;7.47;;;5.00;91.10;;;;;;5043984;28;20650;-47
2022/04/11 06:27:12;;;;;;;10.13;7.33;;;5.20;90.50;;;;;;5045214;28;20642;-46
2022/04/11 06:29:37;;;;;;;7.50;6.70;;;5.40;90.10;;;;;;5044599;28;20811;-46
2022/04/11 06:32:04;;;;;;;9.20;7.90;;;5.60;89.50;;;;;;5045717;28;20614;-45
2022/04/11 06:34:37;;;;;;;13.00;7.40;;;5.70;88.20;;;;;;5044210;28;20266;-48
2022/04/11 06:37:03;;;;;;;8.73;7.10;;;5.90;87.80;;;;;;5046295;28;20599;-46
2022/04/11 06:39:29;;;;;;;7.97;7.17;;;6.10;86.50;;;;;;5049286;28;20420;-45
2022/04/11 06:41:55;;;;;;;7.70;6.17;;;6.20;85.70;;;;;;5049142;28;20504;-45
2022/04/11 06:44:21;;;;;;;7.83;5.90;;;6.40;85.00;;;;;;5048079;28;20421;-46
2022/04/11 06:46:46;;;;;;;9.17;7.03;;;6.50;83.90;;;;;;5048552;28;20261;-46
2022/04/11 06:49:12;;;;;;;9.00;6.50;;;6.70;83.50;;;;;;5047215;28;20557;-47
2022/04/11 06:51:38;;;;;;;7.53;6.10;;;6.80;82.00;;;;;;5046952;28;20242;-46
2022/04/11 06:54:04;;;;;;;7.03;6.33;;;7.00;81.20;;;;;;5047624;28;20983;-45
2022/04/11 06:56:30;;;;;;;7.53;6.83;;;7.10;81.00;;;;;;5046663;28;20449;-46
2022/04/11 06:58:56;;;;;;;9.13;6.70;;;7.20;79.40;;;;;;5048304;28;20827;-45
2022/04/11 07:01:22;;;;;;;7.13;6.43;;;7.30;78.10;;;;;;5047869;28;20417;-46
2022/04/11 07:03:47;;;;;;;6.47;5.83;;;7.40;78.20;;;;;;5050360;28;20202;-47
2022/04/11 07:06:13;;;;;;;6.97;6.30;;;7.40;77.30;;;;;;5049182;28;20174;-45
2022/04/11 07:08:39;;;;;;;7.90;5.90;;;7.60;77.60;;;;;;5049603;28;20421;-46
2022/04/11 07:11:06;;;;;;;7.47;5.90;;;7.70;76.10;;;;;;5049172;28;20182;-48
2022/04/11 07:13:33;;;;;;;6.70;5.50;;;7.90;76.00;;;;;;5048278;28;20463;-45
2022/04/11 07:15:59;;;;;;;5.90;5.00;;;8.10;74.40;;;;;;5049741;28;20417;-47
2022/04/11 07:18:28;;;;;;;9.63;6.10;;;8.10;72.60;;;;;;5047355;28;20443;-44
2022/04/11 07:20:54;;;;;;;6.43;5.77;;;8.10;72.10;;;;;;5047838;28;20483;-46
2022/04/11 07:23:20;;;;;;;6.50;5.30;;;8.30;72.00;;;;;;5048366;28;20523;-49
2022/04/11 07:25:45;;;;;;;6.90;5.87;;;8.30;71.50;;;;;;5046741;28;20575;-46
2022/04/11 07:28:12;;;;;;;7.33;5.10;;;8.40;70.70;;;;;;5037951;28;20183;-49
2022/04/11 07:30:38;;;;;;;7.50;5.70;;;8.50;70.50;;;;;;5031589;28;20178;-45
2022/04/11 07:33:04;;;;;;;5.97;5.37;;;8.60;69.60;;;;;;5032124;28;20457;-45
2022/04/11 07:35:29;;;;;;;5.67;4.93;;;8.70;70.00;;;;;;5028222;28;20171;-49
2022/04/11 07:37:57;;;;;;;6.80;5.53;;;9.00;69.00;;;;;;5027051;28;20193;-46
2022/04/11 07:40:27;;;;;;;5.23;4.43;;;9.10;68.30;;;;;;5027694;28;20198;-45
2022/04/11 07:42:53;;;;;;;5.27;4.63;;;9.30;67.30;;;;;;5027721;28;20433;-47
2022/04/11 07:45:20;;;;;;;7.40;5.40;;;9.40;67.20;;;;;;5026029;28;20426;-45
2022/04/11 07:47:45;;;;;;;7.10;5.20;;;9.60;66.40;;;;;;5024192;28;20601;-49
2022/04/11 07:50:11;;;;;;;6.67;5.30;;;9.80;64.00;;;;;;5025934;28;20425;-46
2022/04/11 07:52:41;;;;;;;5.80;5.20;;;9.90;63.10;;;;;;5027388;28;20566;-47
2022/04/11 07:55:10;;;;;;;5.67;4.80;;;10.10;61.40;;;;;;5027698;28;20554;-47
2022/04/11 07:57:36;;;;;;;5.70;5.20;;;10.50;60.00;;;;;;5027615;28;20409;-44
2022/04/11 08:00:04;;;;;;;6.70;5.20;;;11.00;59.60;;;;;;5025178;28;20879;-46
2022/04/11 08:02:29;;;;;;;5.80;5.23;;;11.60;58.50;;;;;;5027617;28;20891;-47
2022/04/11 08:04:55;;;;;;;5.43;4.70;;;12.30;56.90;;;;;;5027463;28;20745;-45
2022/04/11 08:07:21;;;;;;;7.40;5.20;;;13.00;55.00;;;;;;5028604;28;20430;-46
2022/04/11 08:09:48;;;;;;;7.60;5.07;;;13.50;55.40;;;;;;5028272;28;20175;-46
2022/04/11 08:12:17;;;;;;;5.53;4.70;;;14.20;51.80;;;;;;5029306;28;20468;-45
2022/04/11 08:14:43;;;;;;;5.07;4.47;;;14.30;50.60;;;;;;5030811;28;20453;-47
2022/04/11 08:17:08;;;;;;;8.70;5.10;;;14.70;49.50;;;;;;5028952;28;20449;-48
2022/04/11 08:19:34;;;;;;;5.57;4.27;;;15.20;48.40;;;;;;5028711;28;20179;-46
2022/04/11 08:22:00;;;;;;;9.53;5.90;;;15.90;47.80;;;;;;5027759;28;20171;-47
2022/04/11 08:24:25;;;;;;;6.50;4.77;;;16.30;45.20;;;;;;5028481;28;20659;-45
2022/04/11 08:26:51;;;;;;;5.00;4.20;;;16.60;47.10;;;;;;5028582;28;20273;-46
2022/04/11 08:29:20;;;;;;;5.10;4.30;;;16.90;46.90;;;;;;5027090;28;20249;-44
2022/04/11 08:31:45;;;;;;;4.80;4.30;;;17.40;43.00;;;;;;5026315;28;20359;-45
2022/04/11 08:34:11;;;;;;;5.37;4.40;;;17.60;40.90;;;;;;5026698;28;20432;-46
2022/04/11 08:36:37;;;;;;;4.10;3.70;;;16.90;39.50;;;;;;5028648;28;20200;-48
2022/04/11 08:39:03;;;;;;;4.87;4.30;;;16.60;40.60;;;;;;5038166;28;20197;-47
2022/04/11 08:41:33;;;;;;;5.10;4.23;;;16.60;40.90;;;;;;5039917;28;20666;-45
2022/04/11 08:44:00;;;;;;;5.77;5.03;;;17.20;41.30;;;;;;5048339;28;20416;-43
2022/04/11 08:46:27;;;;;;;4.90;3.83;;;17.60;39.50;;;;;;5048402;28;20426;-43
2022/04/11 08:48:53;;;;;;;5.50;3.87;;;17.40;39.30;;;;;;5049035;28;20545;-45
2022/04/11 08:51:19;;;;;;;5.50;4.50;;;17.70;40.00;;;;;;5046966;28;20922;-46
2022/04/11 08:53:44;;;;;;;5.40;4.10;;;18.10;39.40;;;;;;5051311;28;20417;-43
2022/04/11 08:56:10;;;;;;;5.27;3.60;;;18.40;38.50;;;;;;5050152;28;20440;-45
2022/04/11 08:58:36;;;;;;;5.17;4.03;;;18.60;38.90;;;;;;5050448;28;20175;-47
2022/04/11 09:01:01;;;;;;;4.70;4.20;;;19.20;37.30;;;;;;5046777;28;20178;-46
2022/04/11 09:03:28;;;;;;;4.83;4.27;;;19.00;37.60;;;;;;5048793;28;20316;-44
2022/04/11 09:06:10;;;;;;;4.40;3.97;;;18.90;36.50;;;;;;5050192;28;20192;-46
2022/04/11 09:08:48;;;;;;;4.00;3.60;;;18.80;36.60;;;;;;5050303;28;20428;-48
2022/04/11 09:11:36;;;;;;;5.13;3.60;;;17.80;35.70;;;;;;5050964;28;20424;-44
2022/04/11 09:14:06;;;;;;;4.80;4.10;;;18.00;40.50;;;;;;5048396;28;20860;-42
2022/04/11 09:16:51;;;;;;;5.23;3.20;;;18.60;41.60;;;;;;5044928;28;20431;-44
2022/04/11 09:19:24;;;;;;;4.23;3.60;;;19.60;41.20;;;;;;5048122;28;20524;-46
2022/04/11 09:21:54;;;;;;;5.47;3.20;;;20.70;42.00;;;;;;5046874;28;20433;-42
2022/04/11 09:24:26;;;;;;;3.50;2.53;;;21.70;41.20;;;;;;5048436;28;20430;-43
2022/04/11 09:26:54;;;;;;;6.63;3.00;;;22.50;39.60;;;;;;5048994;28;20473;-44
2022/04/11 09:29:20;;;;;;;3.20;2.73;;;23.20;37.80;;;;;;5047925;28;20442;-44
2022/04/11 09:31:46;;;;;;;4.20;3.10;;;23.80;38.60;;;;;;5049268;28;20465;-43
2022/04/11 09:34:21;;;;;;;3.30;2.40;;;24.40;37.10;;;;;;5046814;28;20973;-42
2022/04/11 09:36:58;;;;;;;4.73;3.30;;;25.10;35.40;;;;;;5050668;28;20414;-46
2022/04/11 09:39:32;;;;;;;3.33;3.00;;;25.50;34.40;;;;;;5049114;28;20520;-44
2022/04/11 09:41:58;;;;;;;3.50;3.00;;;25.90;33.80;;;;;;5046534;28;20410;-43
2022/04/11 09:44:25;;;;;;;3.13;2.70;;;26.50;33.40;;;;;;5047381;28;20654;-43
2022/04/11 09:46:52;;;;;;;3.10;2.40;;;26.90;32.00;;;;;;5046628;28;20480;-44
2022/04/11 09:49:18;;;;;;;2.70;2.50;;;27.00;31.90;;;;;;5046547;28;20887;-45
2022/04/11 09:52:06;;;;;;;3.13;2.60;;;27.80;30.60;;;;;;5047591;28;20795;-44
2022/04/11 09:54:33;;;;;;;4.73;2.93;;;28.70;30.50;;;;;;5045851;28;20493;-47
2022/04/11 09:57:00;;;;;;;4.10;2.53;;;29.00;29.90;;;;;;5044767;28;20863;-43
2022/04/11 09:59:26;;;;;;;3.10;2.40;;;28.70;29.70;;;;;;5046578;28;20425;-43
2022/04/11 10:01:53;;;;;;;4.40;2.50;;;28.40;29.90;;;;;;5048307;28;20704;-46
2022/04/11 10:04:19;;;;;;;3.60;2.30;;;28.30;30.70;;;;;;5047212;28;20395;-44
2022/04/11 10:06:44;;;;;;;5.80;3.10;;;27.90;30.70;;;;;;5046522;28;20666;-44
2022/04/11 10:09:11;;;;;;;3.90;2.60;;;27.40;30.50;;;;;;5045941;28;20420;-45
2022/04/11 10:11:38;;;;;;;7.33;2.60;;;27.20;31.70;;;;;;5047877;28;20323;-50
2022/04/11 10:14:06;;;;;;;3.93;2.60;;;27.10;33.10;;;;;;5031577;28;20404;-43
2022/04/11 10:16:31;;;;;;;3.10;2.40;;;27.00;33.20;;;;;;5031853;28;20414;-45
2022/04/11 10:19:02;;;;;;;3.20;2.13;;;27.00;33.60;;;;;;5030037;28;20399;-43
2022/04/11 10:21:28;;;;;;;5.13;2.90;;;27.00;33.90;;;;;;5029457;28;20177;-44
2022/04/11 10:24:06;;;;;;;3.00;2.30;;;27.20;32.90;;;;;;5029303;28;20963;-46
2022/04/11 10:26:45;;;;;;;5.23;2.30;;;27.20;34.00;;;;;;5030354;28;20475;-44
2022/04/11 10:29:33;;;;;;;2.60;2.07;;;27.40;34.10;;;;;;5030628;28;20412;-44
2022/04/11 10:32:10;;;;;;;4.27;2.37;;;27.80;33.60;;;;;;5028056;28;20451;-45
2022/04/11 10:35:07;;;;;;;3.07;2.30;;;28.00;32.40;;;;;;5029241;28;20870;-43
2022/04/11 10:37:39;;;;;;;2.57;2.03;;;28.10;32.40;;;;;;5022683;28;20465;-45
2022/04/11 10:40:31;;;;;;;3.20;2.53;;;28.10;29.80;;;;;;5030926;28;20839;-46
2022/04/11 10:43:00;;;;;;;3.37;2.73;;;28.20;29.30;;;;;;5025272;28;20573;-45
2022/04/11 10:45:55;;;;;;;5.63;2.77;;;28.10;28.80;;;;;;5031868;28;20469;-47
2022/04/11 10:48:24;;;;;;;3.90;3.33;;;28.30;29.20;;;;;;5038338;28;20613;-46
2022/04/11 10:50:53;;;;;;;3.20;2.30;;;28.30;27.30;;;;;;5053143;28;20425;-45
2022/04/11 10:53:24;;;;;;;3.60;2.30;;;28.70;28.80;;;;;;5053266;28;20490;-45
2022/04/11 10:56:04;;;;;;;3.23;2.60;;;29.00;29.70;;;;;;5049179;28;20413;-43
2022/04/11 10:58:41;;;;;;;3.07;2.00;;;29.20;28.90;;;;;;5047667;28;20497;-43
2022/04/11 11:01:08;;;;;;;2.50;2.20;;;29.50;29.90;;;;;;5047723;28;20395;-44
2022/04/11 11:03:34;;;;;;;2.33;2.13;;;29.80;29.80;;;;;;5044876;28;20749;-45
2022/04/11 11:06:19;;;;;;;2.97;1.87;;;30.10;29.50;;;;;;5046796;28;20885;-46
2022/04/11 11:08:45;;;;;;;2.87;2.10;;;30.20;29.00;;;;;;5048188;28;20914;-45
2022/04/11 11:11:24;;;;;;;3.70;2.20;;;30.40;29.00;;;;;;5048802;28;20403;-47
2022/04/11 11:13:52;;;;;;;2.50;1.70;;;30.60;28.30;;;;;;5050491;28;20404;-45
2022/04/11 11:16:20;;;;;;;2.40;2.00;;;30.80;28.10;;;;;;5048523;28;20386;-44
2022/04/11 11:18:48;;;;;;;2.40;1.83;;;31.00;28.80;;;;;;5047317;28;20413;-44
2022/04/11 11:21:18;;;;;;;3.00;2.00;;;31.20;29.00;;;;;;5046821;28;20668;-45
2022/04/11 11:24:12;;;;;;;2.50;2.00;;;31.50;28.70;;;;;;5046174;28;20672;-45
2022/04/11 11:26:45;;;;;;;2.60;1.83;;;31.80;28.80;;;;;;5048291;28;20450;-49
2022/04/11 11:29:13;;;;;;;2.43;2.23;;;32.20;28.20;;;;;;5049650;28;20727;-48
2022/04/11 11:31:40;;;;;;;2.93;2.13;;;32.40;28.00;;;;;;5048075;28;20583;-45
2022/04/11 11:34:10;;;;;;;2.50;1.60;;;32.60;27.50;;;;;;5048325;28;20411;-47
2022/04/11 11:36:37;;;;;;;4.57;2.70;;;32.70;27.10;;;;;;5047419;28;20780;-48
2022/04/11 11:39:13;;;;;;;3.10;2.00;;;32.40;25.60;;;;;;5048776;28;20535;-44
2022/04/11 11:41:42;;;;;;;4.17;2.73;;;32.50;26.00;;;;;;5047752;28;20556;-45
2022/04/11 11:44:09;;;;;;;3.53;2.00;;;32.50;25.50;;;;;;5046537;28;20419;-42
2022/04/11 11:46:47;;;;;;;2.17;1.87;;;32.50;26.70;;;;;;5048588;28;20427;-44
2022/04/11 11:49:12;;;;;;;2.10;1.70;;;32.60;27.10;;;;;;5050097;28;20415;-45
2022/04/11 11:51:38;;;;;;;2.43;1.80;;;32.70;26.80;;;;;;5047521;28;20847;-43
2022/04/11 11:54:04;;;;;;;2.33;1.83;;;32.80;26.70;;;;;;5046925;28;20187;-43
2022/04/11 11:56:43;;;;;;;3.67;3.27;;;32.90;26.90;;;;;;5047782;28;20427;-44
2022/04/11 11:59:09;;;;;;;3.23;2.30;;;32.80;24.90;;;;;;5047047;28;20810;-44
2022/04/11 12:01:35;;;;;;;3.10;2.13;;;32.80;25.20;;;;;;5047451;28;20490;-44
2022/04/11 12:04:19;;;;;;;2.83;1.90;;;32.80;26.80;;;;;;5049763;28;20522;-44
2022/04/11 12:06:53;;;;;;;2.47;1.83;;;33.10;26.70;;;;;;5047674;28;20196;-43
2022/04/11 12:09:19;;;;;;;2.37;1.90;;;33.30;27.10;;;;;;5047129;28;20733;-46
2022/04/11 12:11:45;;;;;;;2.70;2.10;;;33.50;26.30;;;;;;5046221;28;20437;-45
2022/04/11 12:14:11;;;;;;;2.30;1.87;;;33.40;26.60;;;;;;5045151;28;20725;-45
2022/04/11 12:16:38;;;;;;;2.40;2.07;;;33.60;26.30;;;;;;5044205;28;20513;-45
2022/04/11 12:19:05;;;;;;;3.83;2.60;;;33.70;25.90;;;;;;5045432;28;20174;-45
2022/04/11 12:21:38;;;;;;;1.97;1.53;;;33.70;26.30;;;;;;5045659;28;20689;-46
2022/04/11 12:24:06;;;;;;;1.83;1.57;;;34.10;26.60;;;;;;5047713;28;20450;-44
2022/04/11 12:26:36;;;;;;;3.10;2.60;;;34.30;26.20;;;;;;5047160;28;20467;-43
2022/04/11 12:29:15;;;;;;;2.60;2.30;;;34.10;24.30;;;;;;5047545;28;20474;-45
2022/04/11 12:31:54;;;;;;;2.40;2.00;;;34.10;24.90;;;;;;5046341;28;20426;-44
2022/04/11 12:34:20;;;;;;;2.10;1.83;;;34.10;25.10;;;;;;5046383;28;20408;-44
2022/04/11 12:36:59;;;;;;;2.90;2.10;;;34.40;26.20;;;;;;5049578;28;20560;-45
2022/04/11 12:39:25;;;;;;;2.23;1.83;;;34.40;25.90;;;;;;5049524;28;20184;-49
2022/04/11 12:41:51;;;;;;;2.03;1.83;;;34.50;25.60;;;;;;5048658;28;20545;-46
2022/04/11 12:44:21;;;;;;;3.20;1.73;;;34.40;25.20;;;;;;5049590;28;20193;-44
2022/04/11 12:46:56;;;;;;;2.03;1.83;;;34.60;25.70;;;;;;5046883;28;20908;-46
2022/04/11 12:49:22;;;;;;;2.33;2.13;;;34.80;25.90;;;;;;5048346;28;20497;-46
2022/04/11 12:52:09;;;;;;;2.57;2.30;;;34.70;24.70;;;;;;5045999;28;20438;-43
2022/04/11 12:54:41;;;;;;;1.97;1.60;;;34.60;24.10;;;;;;5045016;28;20840;-44